sensor_id;sensor_type;location;lat;lon;timestamp;pressure;altitude;pressure_sealevel;temperature;humidity
52745;BME280;38637;49.984;20.426;2024-02-26T00:00:05;98372.72;;;10.97;68.88
52745;BME280;38637;49.984;20.426;2024-02-26T00:02:35;98376.75;;;11.05;68.64
52745;BME280;38637;49.984;20.426;2024-02-26T00:05:04;98347.72;;;10.85;68.78
52745;BME280;38637;49.984;20.426;2024-02-26T00:07:30;98312.50;;;10.60;69.00
52745;BME280;38637;49.984;20.426;2024-02-26T00:09:55;98371.38;;;10.95;68.80
52745;BME280;38637;49.984;20.426;2024-02-26T00:12:20;98309.25;;;10.52;68.72
52745;BME280;38637;49.984;20.426;2024-02-26T00:14:46;98364.34;;;10.89;68.71
52745;BME280;38637;49.984;20.426;2024-02-26T00:17:12;98404.81;;;11.11;68.81
52745;BME280;38637;49.984;20.426;2024-02-26T00:19:38;98308.78;;;10.45;68.42
52745;BME280;38637;49.984;20.426;2024-02-26T00:22:03;98371.03;;;10.77;68.25
52745;BME280;38637;49.984;20.426;2024-02-26T00:24:29;98393.31;;;10.90;68.50
52745;BME280;38637;49.984;20.426;2024-02-26T00:26:54;98359.22;;;10.82;69.11
52745;BME280;38637;49.984;20.426;2024-02-26T00:29:20;98387.50;;;10.96;69.20
52745;BME280;38637;49.984;20.426;2024-02-26T00:31:45;98408.31;;;11.16;69.35
52745;BME280;38637;49.984;20.426;2024-02-26T00:34:10;98398.63;;;11.05;69.34
52745;BME280;38637;49.984;20.426;2024-02-26T00:36:35;98346.25;;;10.69;69.00
52745;BME280;38637;49.984;20.426;2024-02-26T00:39:01;98370.88;;;10.93;68.88
52745;BME280;38637;49.984;20.426;2024-02-26T00:41:26;98409.19;;;11.12;68.55
52745;BME280;38637;49.984;20.426;2024-02-26T00:43:51;98387.91;;;11.09;68.52
52745;BME280;38637;49.984;20.426;2024-02-26T00:46:16;98389.78;;;11.13;69.15
52745;BME280;38637;49.984;20.426;2024-02-26T00:48:42;98313.56;;;10.58;68.59
52745;BME280;38637;49.984;20.426;2024-02-26T00:51:07;98373.75;;;11.01;69.15
52745;BME280;38637;49.984;20.426;2024-02-26T00:53:33;98373.75;;;11.01;69.02
52745;BME280;38637;49.984;20.426;2024-02-26T00:55:58;98306.03;;;10.50;68.80
52745;BME280;38637;49.984;20.426;2024-02-26T00:58:26;98391.69;;;11.13;69.05
52745;BME280;38637;49.984;20.426;2024-02-26T01:00:52;98353.41;;;10.89;69.27
52745;BME280;38637;49.984;20.426;2024-02-26T01:03:18;98376.00;;;10.99;68.93
52745;BME280;38637;49.984;20.426;2024-02-26T01:05:43;98382.38;;;11.14;68.83
52745;BME280;38637;49.984;20.426;2024-02-26T01:08:08;98309.59;;;10.75;68.84
52745;BME280;38637;49.984;20.426;2024-02-26T01:10:34;98371.00;;;11.07;68.83
52745;BME280;38637;49.984;20.426;2024-02-26T01:13:00;98385.38;;;11.17;68.59
52745;BME280;38637;49.984;20.426;2024-02-26T01:15:26;98332.50;;;10.79;68.46
52745;BME280;38637;49.984;20.426;2024-02-26T01:17:51;98357.69;;;11.00;68.33
52745;BME280;38637;49.984;20.426;2024-02-26T01:20:17;98313.16;;;10.75;68.17
52745;BME280;38637;49.984;20.426;2024-02-26T01:22:43;98361.75;;;11.02;68.77
52745;BME280;38637;49.984;20.426;2024-02-26T01:25:08;98361.22;;;11.00;69.32
52745;BME280;38637;49.984;20.426;2024-02-26T01:27:37;98390.34;;;11.10;69.46
52745;BME280;38637;49.984;20.426;2024-02-26T01:30:03;98376.44;;;11.07;69.41
52745;BME280;38637;49.984;20.426;2024-02-26T01:32:29;98376.75;;;11.05;69.98
52745;BME280;38637;49.984;20.426;2024-02-26T01:34:54;98297.34;;;10.43;69.79
52745;BME280;38637;49.984;20.426;2024-02-26T01:37:19;98342.44;;;10.65;70.30
52745;BME280;38637;49.984;20.426;2024-02-26T01:39:45;98331.09;;;10.52;70.20
52745;BME280;38637;49.984;20.426;2024-02-26T01:42:10;98288.81;;;10.16;70.31
52745;BME280;38637;49.984;20.426;2024-02-26T01:44:35;98370.50;;;10.75;70.73
52745;BME280;38637;49.984;20.426;2024-02-26T01:47:01;98368.59;;;10.71;70.32
52745;BME280;38637;49.984;20.426;2024-02-26T01:49:27;98387.63;;;10.81;70.38
52745;BME280;38637;49.984;20.426;2024-02-26T01:51:54;98351.06;;;10.48;70.11
52745;BME280;38637;49.984;20.426;2024-02-26T01:54:19;98369.50;;;10.61;70.65
52745;BME280;38637;49.984;20.426;2024-02-26T01:56:45;98366.59;;;10.52;70.87
52745;BME280;38637;49.984;20.426;2024-02-26T01:59:10;98361.66;;;10.54;70.57
52745;BME280;38637;49.984;20.426;2024-02-26T02:01:36;98350.78;;;10.49;70.61
52745;BME280;38637;49.984;20.426;2024-02-26T02:04:01;98359.75;;;10.55;70.65
52745;BME280;38637;49.984;20.426;2024-02-26T02:06:27;98372.81;;;10.58;70.61
52745;BME280;38637;49.984;20.426;2024-02-26T02:08:55;98339.47;;;10.32;71.13
52745;BME280;38637;49.984;20.426;2024-02-26T02:11:20;98375.66;;;10.43;71.12
52745;BME280;38637;49.984;20.426;2024-02-26T02:13:46;98328.69;;;10.11;70.56
52745;BME280;38637;49.984;20.426;2024-02-26T02:16:11;98356.44;;;10.19;70.98
52745;BME280;38637;49.984;20.426;2024-02-26T02:18:37;98381.22;;;10.32;70.85
52745;BME280;38637;49.984;20.426;2024-02-26T02:21:02;98389.97;;;10.29;71.37
52745;BME280;38637;49.984;20.426;2024-02-26T02:23:28;98351.41;;;10.02;71.28
52745;BME280;38637;49.984;20.426;2024-02-26T02:25:53;98390.25;;;10.23;71.98
52745;BME280;38637;49.984;20.426;2024-02-26T02:28:20;98383.00;;;10.08;71.81
52745;BME280;38637;49.984;20.426;2024-02-26T02:30:46;98314.25;;;9.66;73.07
52745;BME280;38637;49.984;20.426;2024-02-26T02:33:12;98351.59;;;9.66;74.23
52745;BME280;38637;49.984;20.426;2024-02-26T02:35:37;98310.88;;;9.30;74.54
52745;BME280;38637;49.984;20.426;2024-02-26T02:38:03;98387.81;;;9.72;74.67
52745;BME280;38637;49.984;20.426;2024-02-26T02:40:28;98350.31;;;9.48;74.37
52745;BME280;38637;49.984;20.426;2024-02-26T02:42:53;98317.41;;;9.34;74.10
52745;BME280;38637;49.984;20.426;2024-02-26T02:45:19;98295.72;;;9.14;73.90
52745;BME280;38637;49.984;20.426;2024-02-26T02:47:44;98363.06;;;9.58;73.85
52745;BME280;38637;49.984;20.426;2024-02-26T02:50:09;98349.81;;;9.46;74.29
52745;BME280;38637;49.984;20.426;2024-02-26T02:52:35;98339.19;;;9.39;73.86
52745;BME280;38637;49.984;20.426;2024-02-26T02:55:01;98347.34;;;9.39;74.16
52745;BME280;38637;49.984;20.426;2024-02-26T02:57:26;98373.75;;;9.49;74.82
52745;BME280;38637;49.984;20.426;2024-02-26T02:59:51;98383.06;;;9.33;75.90
52745;BME280;38637;49.984;20.426;2024-02-26T03:02:16;98386.66;;;9.23;76.48
52745;BME280;38637;49.984;20.426;2024-02-26T03:04:42;98393.75;;;9.14;77.19
52745;BME280;38637;49.984;20.426;2024-02-26T03:07:07;98394.59;;;9.04;77.62
52745;BME280;38637;49.984;20.426;2024-02-26T03:09:32;98385.06;;;9.02;77.40
52745;BME280;38637;49.984;20.426;2024-02-26T03:11:57;98389.97;;;9.10;77.17
52745;BME280;38637;49.984;20.426;2024-02-26T03:14:23;98368.47;;;9.03;76.59
52745;BME280;38637;49.984;20.426;2024-02-26T03:16:48;98383.94;;;9.18;76.26
52745;BME280;38637;49.984;20.426;2024-02-26T03:19:15;98376.31;;;9.15;75.70
52745;BME280;38637;49.984;20.426;2024-02-26T03:21:41;98355.94;;;9.02;75.52
52745;BME280;38637;49.984;20.426;2024-02-26T03:24:06;98349.66;;;9.02;75.33
52745;BME280;38637;49.984;20.426;2024-02-26T03:26:34;98392.66;;;9.25;75.58
52745;BME280;38637;49.984;20.426;2024-02-26T03:28:59;98328.78;;;8.71;74.85
52745;BME280;38637;49.984;20.426;2024-02-26T03:31:24;98324.66;;;8.84;74.49
52745;BME280;38637;49.984;20.426;2024-02-26T03:33:49;98338.00;;;8.91;74.65
52745;BME280;38637;49.984;20.426;2024-02-26T03:36:15;98351.63;;;8.91;74.29
52745;BME280;38637;49.984;20.426;2024-02-26T03:38:40;98334.22;;;8.77;74.37
52745;BME280;38637;49.984;20.426;2024-02-26T03:41:05;98395.41;;;9.05;74.64
52745;BME280;38637;49.984;20.426;2024-02-26T03:43:30;98364.41;;;8.80;74.81
52745;BME280;38637;49.984;20.426;2024-02-26T03:45:56;98367.44;;;8.79;74.80
52745;BME280;38637;49.984;20.426;2024-02-26T03:48:22;98354.38;;;8.65;75.42
52745;BME280;38637;49.984;20.426;2024-02-26T03:50:47;98305.94;;;8.32;75.90
52745;BME280;38637;49.984;20.426;2024-02-26T03:53:12;98379.69;;;8.76;76.18
52745;BME280;38637;49.984;20.426;2024-02-26T03:55:38;98349.75;;;8.61;75.83
52745;BME280;38637;49.984;20.426;2024-02-26T03:58:03;98387.00;;;8.86;75.74
52745;BME280;38637;49.984;20.426;2024-02-26T04:00:28;98311.13;;;8.28;75.62
52745;BME280;38637;49.984;20.426;2024-02-26T04:02:55;98338.84;;;8.66;75.99
52745;BME280;38637;49.984;20.426;2024-02-26T04:05:21;98318.47;;;8.53;76.45
52745;BME280;38637;49.984;20.426;2024-02-26T04:07:46;98263.00;;;8.18;75.64
52745;BME280;38637;49.984;20.426;2024-02-26T04:10:12;98352.19;;;8.72;75.76
52745;BME280;38637;49.984;20.426;2024-02-26T04:12:41;98257.28;;;8.15;75.82
52745;BME280;38637;49.984;20.426;2024-02-26T04:15:10;98345.13;;;8.66;75.85
52745;BME280;38637;49.984;20.426;2024-02-26T04:17:36;98371.50;;;8.86;75.56
52745;BME280;38637;49.984;20.426;2024-02-26T04:20:03;98317.41;;;8.54;75.76
52745;BME280;38637;49.984;20.426;2024-02-26T04:22:28;98326.63;;;8.58;75.97
52745;BME280;38637;49.984;20.426;2024-02-26T04:24:54;98349.75;;;8.71;75.73
52745;BME280;38637;49.984;20.426;2024-02-26T04:27:19;98316.84;;;8.47;75.66
52745;BME280;38637;49.984;20.426;2024-02-26T04:29:44;98272.50;;;8.16;75.08
52745;BME280;38637;49.984;20.426;2024-02-26T04:32:09;98279.84;;;8.15;74.77
52745;BME280;38637;49.984;20.426;2024-02-26T04:34:35;98259.19;;;7.99;74.40
52745;BME280;38637;49.984;20.426;2024-02-26T04:37:00;98268.69;;;8.01;74.26
52745;BME280;38637;49.984;20.426;2024-02-26T04:39:25;98343.78;;;8.38;74.53
52745;BME280;38637;49.984;20.426;2024-02-26T04:41:51;98369.88;;;8.44;74.77
52745;BME280;38637;49.984;20.426;2024-02-26T04:44:16;98316.81;;;8.16;74.72
52745;BME280;38637;49.984;20.426;2024-02-26T04:46:41;98312.19;;;8.17;74.69
52745;BME280;38637;49.984;20.426;2024-02-26T04:49:06;98251.31;;;7.72;74.98
52745;BME280;38637;49.984;20.426;2024-02-26T04:51:32;98305.94;;;8.01;75.59
52745;BME280;38637;49.984;20.426;2024-02-26T04:53:57;98262.44;;;7.80;75.20
52745;BME280;38637;49.984;20.426;2024-02-26T04:56:22;98228.16;;;7.39;75.38
52745;BME280;38637;49.984;20.426;2024-02-26T04:58:48;98248.28;;;7.58;75.57
52745;BME280;38637;49.984;20.426;2024-02-26T05:01:13;98365.25;;;8.29;76.03
52745;BME280;38637;49.984;20.426;2024-02-26T05:03:41;98320.09;;;8.08;76.15
52745;BME280;38637;49.984;20.426;2024-02-26T05:06:06;98368.22;;;8.28;76.20
52745;BME280;38637;49.984;20.426;2024-02-26T05:08:31;98269.50;;;7.66;76.38
52745;BME280;38637;49.984;20.426;2024-02-26T05:10:58;98361.97;;;8.22;76.25
52745;BME280;38637;49.984;20.426;2024-02-26T05:13:25;98363.06;;;8.26;76.06
52745;BME280;38637;49.984;20.426;2024-02-26T05:15:50;98325.50;;;7.98;75.80
52745;BME280;38637;49.984;20.426;2024-02-26T05:18:17;98343.19;;;8.00;75.54
52745;BME280;38637;49.984;20.426;2024-02-26T05:20:42;98329.06;;;7.93;75.63
52745;BME280;38637;49.984;20.426;2024-02-26T05:23:09;98340.19;;;7.97;75.75
52745;BME280;38637;49.984;20.426;2024-02-26T05:25:34;98310.00;;;7.83;76.17
52745;BME280;38637;49.984;20.426;2024-02-26T05:28:00;98358.72;;;8.15;76.35
52745;BME280;38637;49.984;20.426;2024-02-26T05:30:25;98237.41;;;7.43;76.35
52745;BME280;38637;49.984;20.426;2024-02-26T05:32:53;98259.69;;;7.65;76.46
52745;BME280;38637;49.984;20.426;2024-02-26T05:35:18;98289.63;;;7.86;76.29
52745;BME280;38637;49.984;20.426;2024-02-26T05:37:43;98321.72;;;7.99;76.71
52745;BME280;38637;49.984;20.426;2024-02-26T05:40:09;98333.41;;;7.99;76.64
52745;BME280;38637;49.984;20.426;2024-02-26T05:42:34;98344.56;;;8.13;76.73
52745;BME280;38637;49.984;20.426;2024-02-26T05:44:59;98295.84;;;7.71;76.57
52745;BME280;38637;49.984;20.426;2024-02-26T05:47:30;98360.88;;;8.13;76.28
52745;BME280;38637;49.984;20.426;2024-02-26T05:49:55;98366.88;;;8.05;76.30
52745;BME280;38637;49.984;20.426;2024-02-26T05:52:23;98306.72;;;7.66;76.46
52745;BME280;38637;49.984;20.426;2024-02-26T05:54:48;98318.91;;;7.58;76.59
52745;BME280;38637;49.984;20.426;2024-02-26T05:57:14;98291.97;;;7.36;76.30
52745;BME280;38637;49.984;20.426;2024-02-26T05:59:39;98325.97;;;7.54;76.97
52745;BME280;38637;49.984;20.426;2024-02-26T06:02:04;98358.09;;;7.77;77.16
52745;BME280;38637;49.984;20.426;2024-02-26T06:04:29;98319.16;;;7.46;76.68
52745;BME280;38637;49.984;20.426;2024-02-26T06:06:55;98352.66;;;7.72;76.50
52745;BME280;38637;49.984;20.426;2024-02-26T06:09:20;98318.09;;;7.52;76.94
52745;BME280;38637;49.984;20.426;2024-02-26T06:11:45;98379.84;;;7.82;77.20
52745;BME280;38637;49.984;20.426;2024-02-26T06:14:11;98371.94;;;7.71;77.70
52745;BME280;38637;49.984;20.426;2024-02-26T06:16:37;98299.78;;;7.22;78.89
52745;BME280;38637;49.984;20.426;2024-02-26T06:19:03;98352.88;;;7.55;79.11
52745;BME280;38637;49.984;20.426;2024-02-26T06:21:29;98355.84;;;7.59;79.28
52745;BME280;38637;49.984;20.426;2024-02-26T06:23:54;98385.31;;;7.93;79.68
52745;BME280;38637;49.984;20.426;2024-02-26T06:26:19;98357.00;;;7.83;79.62
52745;BME280;38637;49.984;20.426;2024-02-26T06:28:45;98352.38;;;7.74;79.72
52745;BME280;38637;49.984;20.426;2024-02-26T06:31:10;98380.97;;;7.97;80.15
52745;BME280;38637;49.984;20.426;2024-02-26T06:33:35;98402.44;;;7.98;80.33
52745;BME280;38637;49.984;20.426;2024-02-26T06:36:00;98387.50;;;8.01;80.49
52745;BME280;38637;49.984;20.426;2024-02-26T06:38:26;98373.38;;;7.99;80.32
52745;BME280;38637;49.984;20.426;2024-02-26T06:40:51;98377.72;;;7.90;80.61
52745;BME280;38637;49.984;20.426;2024-02-26T06:43:16;98407.38;;;8.32;80.95
52745;BME280;38637;49.984;20.426;2024-02-26T06:45:41;98356.75;;;7.95;80.59
52745;BME280;38637;49.984;20.426;2024-02-26T06:48:07;98348.34;;;8.07;80.45
52745;BME280;38637;49.984;20.426;2024-02-26T06:50:32;98406.06;;;8.50;80.70
52745;BME280;38637;49.984;20.426;2024-02-26T06:52:57;98366.06;;;8.30;81.01
52745;BME280;38637;49.984;20.426;2024-02-26T06:55:22;98405.00;;;8.66;81.58
52745;BME280;38637;49.984;20.426;2024-02-26T06:57:48;98390.56;;;8.66;81.42
52745;BME280;38637;49.984;20.426;2024-02-26T07:00:13;98423.47;;;8.90;81.34
52745;BME280;38637;49.984;20.426;2024-02-26T07:02:41;98307.31;;;8.34;81.29
52745;BME280;38637;49.984;20.426;2024-02-26T07:05:07;98423.16;;;9.17;81.06
52745;BME280;38637;49.984;20.426;2024-02-26T07:07:32;98392.94;;;9.13;80.80
52745;BME280;38637;49.984;20.426;2024-02-26T07:09:58;98399.44;;;9.28;80.73
52745;BME280;38637;49.984;20.426;2024-02-26T07:12:23;98375.50;;;9.14;80.77
52745;BME280;38637;49.984;20.426;2024-02-26T07:14:49;98397.25;;;9.35;80.32
52745;BME280;38637;49.984;20.426;2024-02-26T07:17:15;98363.75;;;9.29;80.81
52745;BME280;38637;49.984;20.426;2024-02-26T07:19:41;98433.06;;;9.78;80.53
52745;BME280;38637;49.984;20.426;2024-02-26T07:22:06;98355.81;;;9.38;80.50
52745;BME280;38637;49.984;20.426;2024-02-26T07:24:31;98386.47;;;9.64;80.38
52745;BME280;38637;49.984;20.426;2024-02-26T07:26:57;98407.66;;;9.82;80.37
52745;BME280;38637;49.984;20.426;2024-02-26T07:29:22;98394.06;;;9.77;80.14
52745;BME280;38637;49.984;20.426;2024-02-26T07:31:47;98376.06;;;9.76;80.25
52745;BME280;38637;49.984;20.426;2024-02-26T07:34:13;98385.28;;;9.85;80.31
52745;BME280;38637;49.984;20.426;2024-02-26T07:36:38;98395.34;;;9.95;80.32
52745;BME280;38637;49.984;20.426;2024-02-26T07:39:03;98387.72;;;9.92;80.28
52745;BME280;38637;49.984;20.426;2024-02-26T07:41:29;98410.50;;;10.11;80.26
52745;BME280;38637;49.984;20.426;2024-02-26T07:43:54;98388.75;;;10.01;80.29
52745;BME280;38637;49.984;20.426;2024-02-26T07:46:19;98364.88;;;9.83;80.64
52745;BME280;38637;49.984;20.426;2024-02-26T07:48:44;98389.28;;;10.03;80.80
52745;BME280;38637;49.984;20.426;2024-02-26T07:51:12;98424.31;;;10.35;80.83
52745;BME280;38637;49.984;20.426;2024-02-26T07:53:38;98359.34;;;9.93;80.85
52745;BME280;38637;49.984;20.426;2024-02-26T07:56:03;98353.56;;;10.05;80.89
52745;BME280;38637;49.984;20.426;2024-02-26T07:58:29;98351.88;;;10.09;80.91
52745;BME280;38637;49.984;20.426;2024-02-26T08:00:54;98406.50;;;10.43;80.64
52745;BME280;38637;49.984;20.426;2024-02-26T08:03:19;98385.81;;;10.37;80.82
52745;BME280;38637;49.984;20.426;2024-02-26T08:05:44;98390.44;;;10.42;80.35
52745;BME280;38637;49.984;20.426;2024-02-26T08:08:10;98375.53;;;10.19;80.15
52745;BME280;38637;49.984;20.426;2024-02-26T08:10:35;98411.59;;;10.55;80.04
52745;BME280;38637;49.984;20.426;2024-02-26T08:13:00;98422.69;;;10.69;80.15
52745;BME280;38637;49.984;20.426;2024-02-26T08:15:31;98397.16;;;10.54;79.58
52745;BME280;38637;49.984;20.426;2024-02-26T08:17:57;98407.94;;;10.70;79.83
52745;BME280;38637;49.984;20.426;2024-02-26T08:20:22;98380.44;;;10.61;79.65
52745;BME280;38637;49.984;20.426;2024-02-26T08:22:48;98415.91;;;10.95;79.83
52745;BME280;38637;49.984;20.426;2024-02-26T08:25:13;98310.53;;;10.31;79.73
52745;BME280;38637;49.984;20.426;2024-02-26T08:27:39;98404.13;;;11.00;79.61
52745;BME280;38637;49.984;20.426;2024-02-26T08:30:04;98410.81;;;11.13;79.77
52745;BME280;38637;49.984;20.426;2024-02-26T08:32:30;98355.44;;;10.78;79.65
52745;BME280;38637;49.984;20.426;2024-02-26T08:34:55;98388.38;;;11.16;79.74
52745;BME280;38637;49.984;20.426;2024-02-26T08:37:20;98405.78;;;11.25;79.52
52745;BME280;38637;49.984;20.426;2024-02-26T08:39:46;98367.44;;;11.06;78.88
52745;BME280;38637;49.984;20.426;2024-02-26T08:42:12;98357.69;;;11.00;78.65
52745;BME280;38637;49.984;20.426;2024-02-26T08:44:37;98400.44;;;11.39;78.59
52745;BME280;38637;49.984;20.426;2024-02-26T08:47:02;98349.31;;;11.15;78.75
52745;BME280;38637;49.984;20.426;2024-02-26T08:49:27;98350.84;;;11.26;78.61
52745;BME280;38637;49.984;20.426;2024-02-26T08:51:53;98392.78;;;11.60;78.70
52745;BME280;38637;49.984;20.426;2024-02-26T08:54:18;98395.63;;;11.73;79.02
52745;BME280;38637;49.984;20.426;2024-02-26T08:56:43;98354.50;;;11.60;78.88
52745;BME280;38637;49.984;20.426;2024-02-26T08:59:09;98290.41;;;11.28;77.37
52745;BME280;38637;49.984;20.426;2024-02-26T09:01:34;98422.03;;;12.07;76.92
52745;BME280;38637;49.984;20.426;2024-02-26T09:03:59;98416.41;;;12.17;75.82
52745;BME280;38637;49.984;20.426;2024-02-26T09:06:24;98396.44;;;12.17;74.73
52745;BME280;38637;49.984;20.426;2024-02-26T09:08:50;98397.13;;;12.28;74.23
52745;BME280;38637;49.984;20.426;2024-02-26T09:11:15;98387.03;;;12.23;74.44
52745;BME280;38637;49.984;20.426;2024-02-26T09:13:41;98354.66;;;12.11;74.58
52745;BME280;38637;49.984;20.426;2024-02-26T09:16:07;98300.75;;;11.93;74.58
52745;BME280;38637;49.984;20.426;2024-02-26T09:18:32;98385.16;;;12.56;74.14
52745;BME280;38637;49.984;20.426;2024-02-26T09:20:57;98368.41;;;12.58;74.27
52745;BME280;38637;49.984;20.426;2024-02-26T09:23:23;98311.75;;;12.39;74.42
52745;BME280;38637;49.984;20.426;2024-02-26T09:25:48;98385.25;;;12.98;74.33
52745;BME280;38637;49.984;20.426;2024-02-26T09:28:13;98367.13;;;13.02;72.95
52745;BME280;38637;49.984;20.426;2024-02-26T09:30:41;98343.97;;;13.08;73.15
52745;BME280;38637;49.984;20.426;2024-02-26T09:33:07;98371.91;;;13.24;72.25
52745;BME280;38637;49.984;20.426;2024-02-26T09:35:32;98375.00;;;13.50;71.90
52745;BME280;38637;49.984;20.426;2024-02-26T09:37:57;98363.44;;;13.53;71.30
52745;BME280;38637;49.984;20.426;2024-02-26T09:40:22;98300.06;;;13.27;70.23
52745;BME280;38637;49.984;20.426;2024-02-26T09:42:51;98382.19;;;13.87;70.36
52745;BME280;38637;49.984;20.426;2024-02-26T09:45:19;98397.19;;;14.03;69.36
52745;BME280;38637;49.984;20.426;2024-02-26T09:47:47;98374.13;;;13.91;68.48
52745;BME280;38637;49.984;20.426;2024-02-26T09:50:14;98399.59;;;14.19;67.98
52745;BME280;38637;49.984;20.426;2024-02-26T09:52:42;98378.56;;;14.14;68.08
52745;BME280;38637;49.984;20.426;2024-02-26T09:55:08;98347.97;;;14.07;68.04
52745;BME280;38637;49.984;20.426;2024-02-26T09:57:37;98397.47;;;14.52;68.26
52745;BME280;38637;49.984;20.426;2024-02-26T10:00:03;98394.34;;;14.67;68.92
52745;BME280;38637;49.984;20.426;2024-02-26T10:02:33;98380.28;;;14.69;68.74
52745;BME280;38637;49.984;20.426;2024-02-26T10:05:02;98402.00;;;15.02;66.61
52745;BME280;38637;49.984;20.426;2024-02-26T10:07:30;98399.38;;;15.19;66.64
52745;BME280;38637;49.984;20.426;2024-02-26T10:09:55;98369.75;;;15.16;65.20
52745;BME280;38637;49.984;20.426;2024-02-26T10:12:21;98373.47;;;15.20;65.40
52745;BME280;38637;49.984;20.426;2024-02-26T10:14:47;98375.69;;;15.40;65.08
52745;BME280;38637;49.984;20.426;2024-02-26T10:17:12;98400.03;;;15.65;64.29
52745;BME280;38637;49.984;20.426;2024-02-26T10:19:37;98376.59;;;15.67;63.82
52745;BME280;38637;49.984;20.426;2024-02-26T10:22:03;98380.03;;;15.81;60.61
52745;BME280;38637;49.984;20.426;2024-02-26T10:24:30;98388.16;;;15.95;60.12
52745;BME280;38637;49.984;20.426;2024-02-26T10:26:56;98352.19;;;15.83;61.76
52745;BME280;38637;49.984;20.426;2024-02-26T10:29:24;98383.47;;;16.22;60.77
52745;BME280;38637;49.984;20.426;2024-02-26T10:31:51;98376.22;;;16.26;59.81
52745;BME280;38637;49.984;20.426;2024-02-26T10:34:16;98383.66;;;16.43;59.97
52745;BME280;38637;49.984;20.426;2024-02-26T10:36:42;98350.44;;;16.30;58.59
52745;BME280;38637;49.984;20.426;2024-02-26T10:39:09;98351.88;;;16.28;58.74
52745;BME280;38637;49.984;20.426;2024-02-26T10:41:34;98372.78;;;16.46;59.05
52745;BME280;38637;49.984;20.426;2024-02-26T10:44:00;98339.91;;;16.24;59.51
52745;BME280;38637;49.984;20.426;2024-02-26T10:46:26;98372.47;;;16.57;58.70
52745;BME280;38637;49.984;20.426;2024-02-26T10:48:52;98365.81;;;16.58;57.50
52745;BME280;38637;49.984;20.426;2024-02-26T10:51:20;98297.94;;;15.92;57.73
52745;BME280;38637;49.984;20.426;2024-02-26T10:53:47;98259.88;;;15.68;58.75
52745;BME280;38637;49.984;20.426;2024-02-26T10:56:15;98278.66;;;15.83;58.69
52745;BME280;38637;49.984;20.426;2024-02-26T10:58:40;98372.63;;;16.51;58.84
52745;BME280;38637;49.984;20.426;2024-02-26T11:01:08;98357.72;;;16.52;58.04
52745;BME280;38637;49.984;20.426;2024-02-26T11:03:33;98361.59;;;16.60;57.98
52745;BME280;38637;49.984;20.426;2024-02-26T11:06:01;98333.91;;;16.57;57.20
52745;BME280;38637;49.984;20.426;2024-02-26T11:08:26;98341.00;;;16.58;55.98
52745;BME280;38637;49.984;20.426;2024-02-26T11:10:53;98364.72;;;16.50;56.37
52745;BME280;38637;49.984;20.426;2024-02-26T11:13:19;98325.66;;;16.13;56.79
52745;BME280;38637;49.984;20.426;2024-02-26T11:15:46;98360.66;;;16.30;57.55
52745;BME280;38637;49.984;20.426;2024-02-26T11:18:14;98348.16;;;16.24;57.20
52745;BME280;38637;49.984;20.426;2024-02-26T11:20:41;98300.38;;;16.02;57.53
52745;BME280;38637;49.984;20.426;2024-02-26T11:23:06;98350.94;;;16.41;57.46
52745;BME280;38637;49.984;20.426;2024-02-26T11:25:32;98329.03;;;16.27;57.02
52745;BME280;38637;49.984;20.426;2024-02-26T11:28:01;98331.50;;;16.38;56.61
52745;BME280;38637;49.984;20.426;2024-02-26T11:30:30;98277.78;;;16.61;55.40
52745;BME280;38637;49.984;20.426;2024-02-26T11:32:57;98317.66;;;17.19;54.25
52745;BME280;38637;49.984;20.426;2024-02-26T11:35:23;98269.16;;;17.18;52.92
52745;BME280;38637;49.984;20.426;2024-02-26T11:37:53;98328.91;;;17.82;51.84
52745;BME280;38637;49.984;20.426;2024-02-26T11:40:19;98246.59;;;17.16;52.65
52745;BME280;38637;49.984;20.426;2024-02-26T11:42:45;98341.56;;;17.83;51.85
52745;BME280;38637;49.984;20.426;2024-02-26T11:48:03;98325.81;;;18.05;51.54
52745;BME280;38637;49.984;20.426;2024-02-26T11:50:36;98345.28;;;18.29;50.59
52745;BME280;38637;49.984;20.426;2024-02-26T11:53:21;98346.69;;;18.35;50.66
52745;BME280;38637;49.984;20.426;2024-02-26T11:55:47;98301.69;;;18.14;50.21
52745;BME280;38637;49.984;20.426;2024-02-26T11:58:12;98329.19;;;18.31;49.79
52745;BME280;38637;49.984;20.426;2024-02-26T12:00:40;98348.38;;;18.49;49.32
52745;BME280;38637;49.984;20.426;2024-02-26T12:03:05;98340.09;;;18.49;49.16
52745;BME280;38637;49.984;20.426;2024-02-26T12:05:34;98330.03;;;18.44;48.97
52745;BME280;38637;49.984;20.426;2024-02-26T12:08:03;98323.88;;;18.80;48.35
52745;BME280;38637;49.984;20.426;2024-02-26T12:10:33;98348.25;;;19.12;47.85
52745;BME280;38637;49.984;20.426;2024-02-26T12:13:13;98346.88;;;19.18;47.29
52745;BME280;38637;49.984;20.426;2024-02-26T12:15:54;98348.16;;;19.33;47.67
52745;BME280;38637;49.984;20.426;2024-02-26T12:18:20;98337.53;;;19.10;48.48
52745;BME280;38637;49.984;20.426;2024-02-26T12:20:46;98351.56;;;18.93;48.96
52745;BME280;38637;49.984;20.426;2024-02-26T12:23:15;98360.66;;;18.72;49.44
52745;BME280;38637;49.984;20.426;2024-02-26T12:25:43;98336.72;;;18.22;50.06
52745;BME280;38637;49.984;20.426;2024-02-26T12:28:09;98332.28;;;17.88;51.26
52745;BME280;38637;49.984;20.426;2024-02-26T12:30:34;98330.75;;;17.69;51.94
52745;BME280;38637;49.984;20.426;2024-02-26T12:33:00;98362.25;;;17.68;52.52
52745;BME280;38637;49.984;20.426;2024-02-26T12:35:29;98279.69;;;17.25;52.84
52745;BME280;38637;49.984;20.426;2024-02-26T12:37:57;98382.00;;;17.50;52.23
52745;BME280;38637;49.984;20.426;2024-02-26T12:40:23;98337.50;;;17.51;52.53
52745;BME280;38637;49.984;20.426;2024-02-26T12:42:49;98329.78;;;17.65;51.97
52745;BME280;38637;49.984;20.426;2024-02-26T12:45:15;98315.16;;;18.36;51.32
52745;BME280;38637;49.984;20.426;2024-02-26T12:47:41;98339.97;;;19.24;49.65
52745;BME280;38637;49.984;20.426;2024-02-26T12:50:08;98330.88;;;19.48;47.94